Time;durP1;ratioP1;P1;durP2;ratioP2;P2;SDS_P1;SDS_P2;PMS_P1;PMS_P2;Temp;Humidity;BMP_temperature;BMP_pressure;BME280_temperature;BME280_humidity;BME280_pressure;Samples;Min_cycle;Max_cycle;Signal;HPM_P1;HPM_P2
2022/07/04 00:01:52;;;;;;;2.67;2.58;;;19.30;99.90;;;20.19;76.40;98057.88;5140203;28;20755;-54
2022/07/04 00:04:25;;;;;;;2.70;2.50;;;19.30;99.90;;;20.16;77.34;98046.53;5142368;28;20258;-55
2022/07/04 00:07:00;;;;;;;3.13;2.40;;;19.20;99.90;;;20.10;76.39;98039.50;5140202;28;20286;-58
2022/07/04 00:09:33;;;;;;;2.30;2.20;;;19.20;99.90;;;20.09;73.88;98047.22;5143208;28;20641;-56
2022/07/04 00:12:07;;;;;;;2.58;2.38;;;19.10;99.90;;;19.97;73.83;98077.28;5139781;28;20244;-58
2022/07/04 00:14:41;;;;;;;3.10;2.55;;;19.00;99.90;;;19.98;75.48;98067.78;5140824;28;20262;-58
2022/07/04 00:17:14;;;;;;;2.80;2.60;;;19.00;99.90;;;19.98;76.06;98070.38;5142433;28;20200;-55
2022/07/04 00:19:47;;;;;;;2.58;2.47;;;19.00;99.90;;;20.01;76.26;98060.94;5140927;28;20259;-57
2022/07/04 00:22:21;;;;;;;2.40;2.30;;;19.10;99.90;;;19.98;76.08;98052.19;5136068;28;20207;-54
2022/07/04 00:24:55;;;;;;;2.63;2.40;;;19.00;99.90;;;20.00;76.01;98050.50;5140189;28;20261;-53
2022/07/04 00:27:28;;;;;;;3.08;2.78;;;19.00;99.90;;;19.92;75.10;98041.69;5135777;28;20240;-57
2022/07/04 00:30:02;;;;;;;3.20;2.53;;;19.00;99.90;;;19.88;75.62;98024.28;5135276;28;20223;-55
2022/07/04 00:32:35;;;;;;;2.40;2.30;;;19.00;99.90;;;19.84;76.07;98023.34;5142063;28;20600;-55
2022/07/04 00:35:09;;;;;;;2.20;2.05;;;18.90;99.90;;;19.82;76.40;98025.00;5141424;28;20274;-55
2022/07/04 00:37:43;;;;;;;3.15;2.60;;;18.90;99.90;;;19.88;77.58;98034.66;5138590;28;20558;-59
2022/07/04 00:40:17;;;;;;;2.47;2.38;;;19.00;99.90;;;19.82;76.95;98018.97;5133812;28;20305;-55
2022/07/04 00:42:50;;;;;;;2.72;2.60;;;19.00;99.90;;;19.77;77.38;98017.16;5136782;28;20664;-57
2022/07/04 00:45:23;;;;;;;2.78;2.60;;;18.90;99.90;;;19.78;78.41;98013.69;5133846;28;20263;-55
2022/07/04 00:47:56;;;;;;;2.80;2.63;;;19.00;99.90;;;19.80;77.27;98017.22;5140366;28;20247;-56
2022/07/04 00:50:29;;;;;;;2.40;2.20;;;19.00;99.90;;;19.78;78.01;98018.00;5139675;28;20254;-56
2022/07/04 00:53:04;;;;;;;2.88;2.67;;;19.00;99.90;;;19.69;77.24;98029.06;5137066;28;20200;-55
2022/07/04 00:55:38;;;;;;;2.85;2.65;;;18.80;99.90;;;19.70;77.65;98055.84;5136627;28;20255;-56
2022/07/04 00:58:14;;;;;;;2.88;2.65;;;18.80;99.90;;;19.61;77.69;98051.28;5133067;28;20205;-57
2022/07/04 01:00:47;;;;;;;2.80;2.60;;;18.70;99.90;;;19.64;78.61;98051.38;5134201;28;20279;-55
2022/07/04 01:03:21;;;;;;;2.42;2.33;;;18.80;99.90;;;19.66;78.76;98048.81;5136286;28;20655;-56
2022/07/04 01:05:54;;;;;;;2.65;2.55;;;18.80;99.90;;;19.68;77.89;98053.22;5137944;28;20204;-57
2022/07/04 01:08:28;;;;;;;2.50;2.30;;;18.80;99.90;;;19.66;78.38;98048.81;5131850;28;20212;-55
2022/07/04 01:11:02;;;;;;;2.83;2.55;;;18.80;99.90;;;19.61;78.30;98040.91;5131697;28;20274;-53
2022/07/04 01:13:36;;;;;;;2.72;2.53;;;18.70;99.90;;;19.57;78.13;98049.44;5137048;28;20634;-54
2022/07/04 01:16:10;;;;;;;2.80;2.58;;;18.70;99.90;;;19.56;78.74;98048.56;5133029;28;20209;-55
2022/07/04 01:18:43;;;;;;;2.58;2.33;;;18.70;99.90;;;19.58;78.86;98051.22;5136846;28;20869;-55
2022/07/04 01:21:18;;;;;;;3.00;2.80;;;18.70;99.90;;;19.58;79.21;98046.03;5140951;28;20232;-56
2022/07/04 01:23:51;;;;;;;3.80;2.92;;;18.70;99.90;;;19.53;80.01;98052.81;5138267;28;20611;-55
2022/07/04 01:26:24;;;;;;;2.67;2.58;;;18.70;99.90;;;19.52;79.76;98054.53;5136919;28;20208;-57
2022/07/04 01:28:57;;;;;;;2.60;2.40;;;18.70;99.90;;;19.53;79.00;98047.63;5133965;28;20227;-58
2022/07/04 01:31:30;;;;;;;2.47;2.33;;;18.60;99.90;;;19.50;79.22;98043.25;5135223;28;20259;-56
2022/07/04 01:34:04;;;;;;;3.20;2.90;;;18.60;99.90;;;19.54;79.50;98031.22;5142249;28;20208;-57
2022/07/04 01:36:38;;;;;;;2.90;2.70;;;18.60;99.90;;;19.45;79.89;98029.28;5138299;28;20200;-57
2022/07/04 01:39:11;;;;;;;2.97;2.70;;;18.70;99.90;;;19.47;79.95;98044.88;5136243;28;20196;-59
2022/07/04 01:41:44;;;;;;;2.70;2.50;;;18.60;99.90;;;19.42;79.87;98046.50;5137073;28;20286;-58
2022/07/04 01:44:17;;;;;;;2.92;2.47;;;18.60;99.90;;;19.33;79.48;98053.19;5133687;28;20248;-58
2022/07/04 01:46:51;;;;;;;2.85;2.65;;;18.50;99.90;;;19.25;80.95;98057.28;5138192;28;20217;-58
2022/07/04 01:49:24;;;;;;;2.63;2.47;;;18.50;99.90;;;19.22;79.90;98065.00;5132880;28;20206;-55
2022/07/04 01:51:59;;;;;;;2.45;2.35;;;18.40;99.90;;;19.22;79.46;98067.59;5133631;28;20223;-53
2022/07/04 01:54:32;;;;;;;2.83;2.63;;;18.40;99.90;;;19.15;78.86;98068.28;5135958;28;20275;-55
2022/07/04 01:57:06;;;;;;;3.03;2.83;;;18.20;99.90;;;19.09;79.35;98076.75;5130666;28;20208;-54
2022/07/04 02:02:30;;;;;;;3.10;2.80;;;18.10;99.90;;;19.00;79.92;98073.94;5139677;28;20204;-57
2022/07/04 02:05:04;;;;;;;2.60;2.50;;;18.20;99.90;;;19.02;80.22;98069.63;5136994;28;20588;-54
2022/07/04 02:07:38;;;;;;;2.95;2.72;;;18.20;99.90;;;19.03;80.07;98075.69;5139242;28;20648;-57
2022/07/04 02:10:12;;;;;;;3.00;2.80;;;18.20;99.90;;;19.08;80.10;98074.13;5132321;28;20315;-55
2022/07/04 02:13:03;;;;;;;3.08;2.88;;;18.20;99.90;;;19.07;79.88;98074.97;5136666;28;20629;-54
2022/07/04 02:15:40;;;;;;;2.67;2.47;;;18.20;99.90;;;19.09;80.61;98087.13;5136293;28;20392;-56
2022/07/04 02:18:14;;;;;;;2.70;2.50;;;18.30;99.90;;;19.11;81.15;98084.56;5135644;28;20238;-55
2022/07/04 02:20:47;;;;;;;2.65;2.47;;;18.30;99.90;;;19.13;80.79;98099.31;5138522;28;20279;-54
2022/07/04 02:23:22;;;;;;;4.15;2.55;;;18.30;99.90;;;19.23;80.44;98110.81;5138164;28;20266;-57
2022/07/04 02:25:55;;;;;;;3.08;2.80;;;18.40;99.90;;;19.20;80.41;98094.28;5133188;28;20203;-53
2022/07/04 02:28:28;;;;;;;2.90;2.70;;;18.40;99.90;;;19.15;81.10;98107.16;5137122;28;20242;-55
2022/07/04 02:31:01;;;;;;;2.92;2.47;;;18.30;99.90;;;19.15;80.57;98117.50;5137298;28;20743;-56
2022/07/04 02:33:34;;;;;;;2.97;2.78;;;18.30;99.90;;;19.16;80.63;98114.06;5140745;28;20235;-55
2022/07/04 02:36:08;;;;;;;2.80;2.60;;;18.30;99.90;;;19.16;79.90;98119.25;5135797;28;20195;-58
2022/07/04 02:38:42;;;;;;;2.72;2.50;;;18.30;99.90;;;19.13;79.48;98126.94;5138905;28;20275;-57
2022/07/04 02:41:15;;;;;;;4.38;2.70;;;18.20;99.90;;;19.12;80.29;98126.06;5137480;28;20269;-56
2022/07/04 02:43:49;;;;;;;3.35;2.85;;;18.20;99.90;;;19.12;80.50;98125.19;5135226;28;20332;-53
2022/07/04 02:46:22;;;;;;;2.70;2.50;;;18.30;99.90;;;19.16;80.53;98127.03;5140745;28;20204;-54
2022/07/04 02:48:56;;;;;;;2.95;2.75;;;18.30;99.90;;;19.20;80.53;98131.47;5140309;28;20231;-58
2022/07/04 02:51:29;;;;;;;2.50;2.40;;;18.40;99.90;;;19.15;80.24;98127.88;5139052;28;20684;-57
2022/07/04 02:54:04;;;;;;;3.03;2.70;;;18.30;99.90;;;19.15;81.09;98133.06;5137951;28;20200;-56
2022/07/04 02:56:37;;;;;;;2.55;2.45;;;18.30;99.90;;;19.18;80.64;98142.63;5136342;28;20197;-54
2022/07/04 02:59:10;;;;;;;4.07;2.55;;;18.30;99.90;;;19.16;79.59;98144.28;5135491;28;20235;-57
2022/07/04 03:01:43;;;;;;;2.78;2.50;;;18.30;99.90;;;19.11;79.80;98145.06;5140704;28;20219;-62
2022/07/04 03:04:17;;;;;;;3.22;2.92;;;18.30;99.90;;;19.05;77.99;98149.16;5141405;28;20247;-55
2022/07/04 03:06:50;;;;;;;2.60;2.40;;;18.20;99.90;;;18.95;78.12;98147.16;5142321;28;20373;-52
2022/07/04 03:09:26;;;;;;;2.80;2.55;;;18.00;99.90;;;18.86;78.84;98151.25;5141999;28;20196;-56
2022/07/04 03:11:59;;;;;;;2.95;2.75;;;18.00;99.90;;;18.89;81.35;98151.34;5136383;28;20223;-54
2022/07/04 03:14:32;;;;;;;3.13;2.75;;;18.10;99.90;;;18.97;79.62;98148.06;5144960;28;20208;-54
2022/07/04 03:17:06;;;;;;;2.47;2.38;;;18.10;99.90;;;18.96;79.53;98156.69;5141003;28;20200;-56
2022/07/04 03:19:39;;;;;;;2.70;2.60;;;18.10;99.90;;;18.97;79.32;98148.97;5141305;28;20208;-52
2022/07/04 03:22:12;;;;;;;2.92;2.72;;;18.10;99.90;;;18.98;79.89;98160.22;5139537;28;20718;-56
2022/07/04 03:24:47;;;;;;;2.78;2.58;;;18.10;99.90;;;18.94;79.56;98158.34;5143741;28;20200;-52
2022/07/04 03:27:20;;;;;;;2.70;2.50;;;18.10;99.90;;;18.93;79.32;98165.25;5142904;28;20203;-58
2022/07/04 03:29:53;;;;;;;3.13;2.75;;;18.00;99.90;;;18.90;80.05;98158.25;5141014;28;20769;-53
2022/07/04 03:32:26;;;;;;;3.40;3.10;;;18.00;99.90;;;18.88;80.77;98166.81;5140731;28;20224;-57
2022/07/04 03:35:00;;;;;;;3.22;2.75;;;18.00;99.90;;;18.92;81.28;98170.41;5140557;28;20208;-52
2022/07/04 03:37:33;;;;;;;2.92;2.80;;;18.10;99.90;;;18.96;81.09;98167.06;5141231;28;20586;-60
2022/07/04 03:40:10;;;;;;;2.70;2.50;;;18.20;99.90;;;19.00;80.69;98168.88;5138021;28;20651;-52
2022/07/04 03:42:43;;;;;;;3.00;2.80;;;18.20;99.90;;;19.01;81.40;98173.25;5135694;28;20754;-56
2022/07/04 03:45:17;;;;;;;3.65;2.80;;;18.20;99.90;;;18.99;81.21;98172.31;5139638;28;20236;-54
2022/07/04 03:47:50;;;;;;;3.33;3.05;;;18.20;99.90;;;19.02;81.50;98182.78;5137913;28;20620;-55
2022/07/04 03:50:24;;;;;;;3.15;2.65;;;18.20;99.90;;;19.02;80.97;98175.88;5141728;28;20228;-52
2022/07/04 03:52:57;;;;;;;2.90;2.70;;;18.20;99.90;;;19.06;81.87;98180.31;5139629;28;20710;-54
2022/07/04 03:55:31;;;;;;;2.90;2.60;;;18.20;99.90;;;19.11;80.76;98183.03;5138137;28;20270;-52
2022/07/04 03:58:05;;;;;;;3.70;2.60;;;18.20;99.90;;;19.11;80.60;98183.94;5140914;28;20212;-59
2022/07/04 04:00:38;;;;;;;2.58;2.47;;;18.20;99.90;;;19.12;80.52;98190.84;5138461;28;20216;-55
2022/07/04 04:05:58;;;;;;;3.30;2.80;;;18.20;99.90;;;19.11;81.53;98177.84;5137256;28;20619;-55
2022/07/04 04:08:31;;;;;;;3.03;2.78;;;18.20;99.90;;;19.10;81.07;98176.09;5142239;28;20196;-56
2022/07/04 04:11:06;;;;;;;3.40;3.20;;;18.20;99.90;;;19.10;81.83;98176.09;5137254;28;20568;-54
2022/07/04 04:13:39;;;;;;;3.30;3.00;;;18.20;99.90;;;19.10;81.78;98176.09;5140869;28;20206;-52
2022/07/04 04:16:12;;;;;;;3.55;3.25;;;18.20;99.90;;;19.10;81.74;98181.28;5139297;28;20651;-53
2022/07/04 04:18:45;;;;;;;3.33;3.00;;;18.30;99.90;;;19.10;81.85;98174.38;5138475;28;20613;-52
2022/07/04 04:21:18;;;;;;;4.35;3.10;;;18.30;99.90;;;19.13;81.91;98176.19;5140499;28;20228;-56
2022/07/04 04:23:52;;;;;;;3.20;3.00;;;18.30;99.90;;;19.13;81.29;98176.19;5138798;28;20262;-59
2022/07/04 04:26:26;;;;;;;3.47;3.17;;;18.30;99.90;;;19.24;81.12;98181.69;5141046;28;20675;-57
2022/07/04 04:28:59;;;;;;;3.22;2.70;;;18.30;99.90;;;19.25;80.63;98183.41;5140332;28;20247;-54
2022/07/04 04:31:32;;;;;;;4.22;2.95;;;18.30;99.90;;;19.21;81.03;98192.84;5135483;28;20232;-58
2022/07/04 04:34:06;;;;;;;3.33;3.03;;;18.30;99.90;;;19.22;81.36;98191.13;5139294;28;20204;-59
2022/07/04 04:36:39;;;;;;;3.00;2.80;;;18.30;99.90;;;19.25;81.51;98196.38;5142529;28;20200;-59
2022/07/04 04:39:13;;;;;;;3.15;2.88;;;18.30;99.90;;;19.25;81.64;98207.63;5139296;28;20203;-55
2022/07/04 04:41:47;;;;;;;3.28;2.97;;;18.30;99.90;;;19.27;81.35;98207.69;5135734;28;20243;-52
2022/07/04 04:44:21;;;;;;;3.63;3.00;;;18.30;99.90;;;19.26;81.08;98219.75;5136502;28;20323;-53
2022/07/04 04:46:54;;;;;;;3.45;3.15;;;18.30;99.90;;;19.25;81.08;98223.16;5141655;28;20271;-54
2022/07/04 04:49:27;;;;;;;3.20;3.00;;;18.30;99.90;;;19.27;81.90;98226.69;5141280;28;20204;-56
2022/07/04 04:52:00;;;;;;;3.45;3.25;;;18.30;99.90;;;19.32;81.90;98235.50;5141684;28;20232;-55
2022/07/04 04:54:34;;;;;;;3.40;3.20;;;18.40;99.90;;;19.40;81.79;98237.41;5142011;28;20270;-53
2022/07/04 04:57:08;;;;;;;3.53;2.90;;;18.50;99.90;;;19.43;81.27;98240.09;5136296;28;20256;-53
2022/07/04 04:59:42;;;;;;;3.22;2.95;;;18.50;99.90;;;19.46;81.41;98248.84;5138240;28;20195;-52
2022/07/04 05:02:15;;;;;;;3.20;3.00;;;18.60;99.90;;;19.54;80.09;98241.25;5138628;28;20595;-56
2022/07/04 05:04:49;;;;;;;3.75;3.10;;;18.60;99.90;;;19.62;79.43;98250.13;5141133;28;20635;-53
2022/07/04 05:07:22;;;;;;;2.90;2.70;;;18.60;99.90;;;19.66;79.39;98249.44;5141620;28;20208;-56
2022/07/04 05:09:58;;;;;;;3.80;3.13;;;18.60;99.90;;;19.71;80.49;98244.34;5139023;28;20224;-55
2022/07/04 05:12:33;;;;;;;4.20;3.80;;;18.70;99.90;;;19.85;79.34;98252.50;5137635;28;20226;-54
2022/07/04 05:15:12;;;;;;;3.47;3.28;;;18.90;99.90;;;19.96;78.62;98251.97;5140414;28;20286;-56
2022/07/04 05:17:45;;;;;;;4.43;3.50;;;19.00;99.90;;;20.06;78.04;98250.50;5137374;28;20212;-56
2022/07/04 05:20:18;;;;;;;3.38;3.00;;;19.10;99.90;;;20.00;77.69;98238.25;5136196;28;20220;-56
2022/07/04 05:22:51;;;;;;;3.35;3.10;;;19.10;99.90;;;20.07;77.52;98239.28;5136329;28;20275;-58
2022/07/04 05:25:25;;;;;;;3.17;2.97;;;19.10;99.90;;;20.16;77.70;98236.91;5138969;28;20247;-57
2022/07/04 05:28:00;;;;;;;3.40;3.10;;;19.20;99.90;;;20.27;77.42;98236.31;5141471;28;20271;-53
2022/07/04 05:30:33;;;;;;;3.08;2.88;;;19.30;99.90;;;20.42;76.68;98236.66;5138592;28;20223;-58
2022/07/04 05:33:06;;;;;;;4.00;3.30;;;19.40;99.90;;;20.52;75.93;98249.03;5141832;28;20862;-54
2022/07/04 05:35:39;;;;;;;3.88;3.53;;;19.50;99.90;;;20.60;75.73;98241.44;5141423;28;20204;-55
2022/07/04 05:38:12;;;;;;;3.10;2.90;;;19.50;99.90;;;20.64;74.96;98249.38;5140350;28;20204;-57
2022/07/04 05:40:46;;;;;;;3.63;3.33;;;19.50;99.90;;;20.75;75.31;98248.75;5138702;28;20280;-56
2022/07/04 05:43:21;;;;;;;3.88;3.55;;;19.70;99.90;;;20.74;74.86;98250.44;5139524;28;20675;-55
2022/07/04 05:45:54;;;;;;;4.88;3.58;;;19.70;99.90;;;20.84;74.13;98254.16;5142720;28;20196;-56
2022/07/04 05:48:28;;;;;;;3.00;2.50;;;19.70;99.90;;;20.84;74.18;98251.53;5140356;28;20200;-54
2022/07/04 05:51:01;;;;;;;4.90;3.58;;;19.70;99.90;;;20.80;74.73;98249.69;5138019;28;20216;-56
2022/07/04 05:53:34;;;;;;;2.92;2.72;;;19.70;99.90;;;20.83;74.52;98249.78;5137486;28;20579;-59
2022/07/04 05:56:07;;;;;;;2.95;2.75;;;19.70;99.90;;;20.89;74.01;98252.53;5141445;28;20246;-53
2022/07/04 05:58:42;;;;;;;5.43;3.20;;;19.90;99.90;;;20.96;73.30;98250.94;5140139;28;20200;-55
2022/07/04 06:01:15;;;;;;;3.33;3.05;;;19.90;99.90;;;21.04;73.04;98247.66;5136881;28;20222;-55
2022/07/04 06:03:49;;;;;;;4.55;3.03;;;20.00;99.90;;;21.20;72.68;98251.47;5140976;28;20204;-57
2022/07/04 06:06:22;;;;;;;3.83;2.97;;;20.10;99.90;;;21.24;71.66;98257.63;5141671;28;20728;-55
2022/07/04 06:08:55;;;;;;;6.03;2.70;;;20.20;99.90;;;21.50;70.65;98258.19;5135751;28;20258;-60
2022/07/04 06:11:28;;;;;;;4.57;3.03;;;20.40;99.90;;;21.78;69.15;98259.63;5134285;28;20231;-53
2022/07/04 06:14:03;;;;;;;3.45;2.88;;;20.60;99.90;;;21.96;67.69;98254.75;5136834;28;20612;-53
2022/07/04 06:16:36;;;;;;;4.43;3.30;;;20.80;99.90;;;22.24;65.41;98252.66;5140678;28;20203;-57
2022/07/04 06:19:09;;;;;;;3.42;3.00;;;21.00;99.90;;;22.57;64.54;98251.47;5141430;28;20255;-57
2022/07/04 06:21:42;;;;;;;4.95;2.97;;;21.30;99.90;;;23.07;62.08;98243.56;5137319;28;20228;-60
2022/07/04 06:24:16;;;;;;;2.95;2.63;;;21.60;99.90;;;23.38;61.57;98245.69;5135856;28;20248;-57
2022/07/04 06:26:49;;;;;;;4.05;3.15;;;21.90;99.90;;;23.24;59.82;98243.78;5134326;28;20207;-56
2022/07/04 06:29:24;;;;;;;4.18;2.72;;;21.90;99.90;;;23.46;58.66;98243.16;5138652;28;20208;-60
2022/07/04 06:31:57;;;;;;;2.70;2.50;;;22.00;99.90;;;23.57;58.64;98243.28;5139660;28;20649;-57
2022/07/04 06:37:21;;;;;;;3.17;2.80;;;22.10;99.90;;;23.86;58.81;98245.38;5136566;28;20275;-59
2022/07/04 06:39:54;;;;;;;3.35;3.05;;;22.30;99.90;;;23.90;58.38;98244.59;5144856;28;20286;-55
2022/07/04 06:42:28;;;;;;;2.97;2.75;;;22.30;99.90;;;23.96;57.87;98248.13;5140700;28;20571;-59
2022/07/04 06:45:02;;;;;;;3.00;2.63;;;22.40;99.90;;;24.08;57.24;98249.09;5142802;28;20208;-57
2022/07/04 06:47:36;;;;;;;3.10;2.80;;;22.40;99.90;;;24.00;56.77;98247.28;5140767;28;20203;-59
2022/07/04 06:50:10;;;;;;;2.60;2.40;;;22.30;99.90;;;23.94;56.80;98242.00;5135067;28;20216;-56
2022/07/04 06:53:05;;;;;;;2.85;2.55;;;22.20;99.90;;;24.08;56.74;98244.75;5132984;28;20647;-58
2022/07/04 06:55:39;;;;;;;2.85;2.70;;;22.30;99.90;;;24.10;56.56;98243.03;5138730;28;20659;-58
2022/07/04 06:58:13;;;;;;;2.75;2.50;;;22.40;99.90;;;24.23;55.88;98239.66;5134753;28;20204;-59
2022/07/04 07:00:47;;;;;;;3.13;2.80;;;22.40;99.90;;;24.21;56.22;98244.00;5130740;28;20757;-56
2022/07/04 07:03:20;;;;;;;3.95;2.75;;;22.50;99.90;;;24.16;56.72;98237.88;5143074;28;20199;-57
2022/07/04 07:05:56;;;;;;;3.22;2.78;;;22.50;99.90;;;24.23;56.29;98244.88;5143539;28;20210;-60
2022/07/04 07:08:33;;;;;;;2.90;2.67;;;22.60;99.90;;;24.48;55.44;98242.53;5143819;28;20222;-59
2022/07/04 07:11:18;;;;;;;3.25;2.63;;;22.80;99.90;;;24.58;54.65;98239.13;5143070;28;20272;-59
2022/07/04 07:13:52;;;;;;;3.90;2.95;;;22.90;99.90;;;24.51;55.43;98245.16;5144346;28;20314;-60
2022/07/04 07:16:26;;;;;;;3.70;2.60;;;22.90;99.90;;;24.59;55.46;98243.47;5139399;28;20212;-59
2022/07/04 07:18:59;;;;;;;2.88;2.65;;;23.00;99.90;;;24.68;55.14;98242.66;5140621;28;20637;-60
2022/07/04 07:21:33;;;;;;;3.28;2.83;;;23.00;99.80;;;24.81;54.28;98233.16;5143987;28;20337;-57
2022/07/04 07:24:06;;;;;;;3.28;2.50;;;23.20;99.60;;;24.86;54.50;98223.59;5144513;28;20196;-57
2022/07/04 07:26:39;;;;;;;4.15;2.60;;;23.10;99.60;;;24.77;54.37;98224.41;5144021;28;20207;-58
2022/07/04 07:29:13;;;;;;;3.28;2.42;;;23.10;99.60;;;24.66;54.70;98221.72;5144044;28;20683;-57
2022/07/04 07:31:47;;;;;;;2.65;2.45;;;23.00;99.70;;;24.64;54.84;98213.03;5144332;28;20227;-60
2022/07/04 07:34:20;;;;;;;2.75;2.55;;;23.00;99.80;;;24.70;55.24;98214.81;5144920;28;20294;-57
2022/07/04 07:36:53;;;;;;;2.67;2.45;;;23.00;99.90;;;24.58;55.15;98210.38;5129209;28;20208;-59
2022/07/04 07:39:27;;;;;;;2.60;2.30;;;23.00;99.70;;;24.62;55.38;98217.34;5138559;28;20255;-57
2022/07/04 07:42:00;;;;;;;2.63;2.38;;;23.10;99.90;;;25.02;54.94;98217.59;5142784;28;20216;-58
2022/07/04 07:44:33;;;;;;;3.75;2.40;;;23.50;99.80;;;25.53;53.28;98215.25;5145204;28;20207;-58
2022/07/04 07:47:08;;;;;;;3.78;2.63;;;23.90;98.80;;;26.13;51.06;98207.53;5143132;28;20207;-59
2022/07/04 07:49:47;;;;;;;3.15;2.83;;;24.20;97.70;;;26.28;50.14;98207.53;5138107;28;20220;-55
2022/07/04 07:52:20;;;;;;;2.90;2.50;;;24.40;96.60;;;26.16;49.98;98203.16;5144654;28;20199;-61
2022/07/04 07:54:59;;;;;;;3.45;2.50;;;24.10;96.80;;;25.92;50.57;98209.22;5142413;28;20219;-56
2022/07/04 07:57:34;;;;;;;2.88;2.50;;;23.90;97.20;;;25.74;50.86;98209.19;5145115;28;20395;-57
2022/07/04 08:00:09;;;;;;;3.00;2.67;;;23.70;97.60;;;25.47;52.07;98205.63;5141909;28;20224;-59
2022/07/04 08:05:34;;;;;;;3.53;2.40;;;23.50;98.40;;;25.02;53.28;98201.91;5139057;28;20235;-59
2022/07/04 08:08:09;;;;;;;4.68;2.80;;;23.30;98.70;;;24.82;54.53;98193.09;5143319;28;20192;-58
2022/07/04 08:10:43;;;;;;;3.30;2.60;;;23.10;99.30;;;24.71;54.52;98191.25;5142895;28;20750;-61
2022/07/04 08:13:16;;;;;;;4.50;2.80;;;23.20;99.00;;;24.89;54.35;98194.84;5144129;28;20617;-57
2022/07/04 08:15:49;;;;;;;3.80;2.75;;;23.20;99.20;;;24.85;53.69;98193.09;5143427;28;20200;-55
2022/07/04 08:18:24;;;;;;;3.22;2.75;;;23.20;98.80;;;24.88;53.37;98188.75;5144632;28;20203;-60
2022/07/04 08:20:57;;;;;;;4.85;3.03;;;23.20;98.60;;;24.98;53.37;98189.69;5142815;28;20227;-59
2022/07/04 08:23:38;;;;;;;2.80;2.60;;;23.20;98.60;;;25.10;53.32;98189.75;5141522;28;20327;-57
2022/07/04 08:26:28;;;;;;;2.70;2.50;;;23.40;98.30;;;25.08;53.36;98182.75;5138996;28;20633;-55
2022/07/04 08:29:02;;;;;;;2.88;2.60;;;23.50;98.00;;;25.13;53.57;98183.66;5142203;28;20203;-60
2022/07/04 08:31:35;;;;;;;3.03;2.75;;;23.50;98.10;;;25.31;52.72;98182.88;5139775;28;20282;-58
2022/07/04 08:34:25;;;;;;;3.28;2.97;;;23.70;98.10;;;25.27;52.55;98183.75;5137650;28;20227;-57
2022/07/04 08:36:58;;;;;;;3.53;2.75;;;23.60;97.40;;;25.28;52.18;98173.25;5138318;28;20198;-58
2022/07/04 08:39:32;;;;;;;3.60;2.55;;;23.60;97.70;;;25.29;52.68;98171.53;5140845;28;20196;-58
2022/07/04 08:42:10;;;;;;;3.50;2.70;;;23.60;97.50;;;25.31;51.77;98182.88;5138299;28;20610;-57
2022/07/04 08:44:49;;;;;;;4.95;2.97;;;23.60;97.30;;;25.23;52.75;98179.34;5138980;28;20200;-59
2022/07/04 08:47:25;;;;;;;3.95;2.83;;;23.50;97.70;;;25.15;52.65;98182.81;5142752;28;20262;-59
2022/07/04 08:50:10;;;;;;;3.20;2.97;;;23.50;98.20;;;25.13;53.13;98181.03;5139971;28;20273;-57
2022/07/04 08:52:48;;;;;;;3.03;2.72;;;23.50;98.20;;;24.98;52.97;98181.84;5133645;28;20625;-59
2022/07/04 08:58:30;;;;;;;2.95;2.70;;;23.40;97.40;;;24.95;52.96;98194.88;5137350;28;20195;-59
2022/07/04 09:01:06;;;;;;;2.97;2.40;;;23.40;97.50;;;24.93;52.84;98196.63;5135999;28;20259;-58
2022/07/04 09:03:40;;;;;;;4.45;2.80;;;23.30;97.80;;;24.81;54.09;98201.78;5140270;28;20203;-63
2022/07/04 09:06:15;;;;;;;2.70;2.50;;;23.40;98.30;;;24.84;53.71;98204.41;5138271;28;20580;-57
2022/07/04 09:08:48;;;;;;;3.35;2.70;;;23.40;97.70;;;24.83;53.22;98210.50;5141890;28;20203;-57
2022/07/04 09:11:21;;;;;;;3.08;2.75;;;23.30;97.60;;;24.84;51.92;98214.88;5140073;28;20332;-57
2022/07/04 09:13:54;;;;;;;3.03;2.58;;;23.20;97.00;;;24.85;52.68;98216.63;5140218;28;20210;-58
2022/07/04 09:16:27;;;;;;;3.83;3.03;;;23.20;97.70;;;24.92;53.12;98224.53;5142597;28;20196;-57
2022/07/04 09:19:00;;;;;;;3.80;2.90;;;23.40;97.80;;;24.98;52.79;98215.84;5139078;28;20204;-61
2022/07/04 09:21:48;;;;;;;3.03;2.80;;;23.60;97.30;;;25.30;51.38;98212.53;5139831;28;20276;-57
2022/07/04 09:24:45;;;;;;;3.78;2.70;;;23.80;96.50;;;25.49;50.47;98222.19;5137823;28;20207;-60
2022/07/04 09:27:33;;;;;;;2.92;2.70;;;24.00;96.00;;;25.68;50.14;98219.66;5136703;28;20718;-60
2022/07/04 09:30:08;;;;;;;3.88;2.90;;;24.20;95.60;;;25.93;50.10;98218.88;5139925;28;20223;-58
2022/07/04 09:32:44;;;;;;;3.28;2.40;;;24.60;95.20;;;26.39;48.12;98220.66;5138800;28;20203;-60
2022/07/04 09:35:20;;;;;;;3.40;2.83;;;24.90;94.20;;;26.52;48.24;98225.88;5137054;28;20257;-61
2022/07/04 09:37:57;;;;;;;4.53;3.08;;;25.00;94.50;;;26.73;47.79;98230.25;5137165;28;20202;-61
2022/07/04 09:40:33;;;;;;;3.83;2.60;;;25.10;94.10;;;26.93;47.16;98230.22;5139201;28;20281;-57
2022/07/04 09:43:12;;;;;;;3.97;2.58;;;25.40;93.50;;;27.10;46.20;98231.91;5140734;28;20294;-58
2022/07/04 09:45:55;;;;;;;4.55;2.60;;;25.50;93.10;;;27.12;46.02;98227.53;5137435;28;20200;-60
2022/07/04 09:48:49;;;;;;;4.60;2.90;;;25.50;92.70;;;27.34;45.05;98225.75;5140188;28;20207;-59
2022/07/04 09:51:41;;;;;;;2.95;2.67;;;25.80;92.10;;;27.53;45.08;98235.31;5139163;28;20743;-62
2022/07/04 09:54:24;;;;;;;2.58;2.38;;;26.00;92.10;;;27.65;45.12;98231.72;5138114;28;20200;-61
2022/07/04 09:57:00;;;;;;;2.97;2.67;;;26.20;92.00;;;27.77;45.61;98231.66;5137207;28;20206;-61
2022/07/04 09:59:34;;;;;;;3.13;2.88;;;26.20;92.10;;;27.90;45.78;98237.75;5138474;28;20207;-60
2022/07/04 10:02:10;;;;;;;3.10;2.80;;;26.50;92.00;;;27.80;45.53;98236.94;5136820;28;20330;-59
2022/07/04 10:04:45;;;;;;;4.25;2.63;;;26.40;92.10;;;27.90;44.74;98236.88;5140077;28;20191;-58
2022/07/04 10:07:35;;;;;;;2.90;2.53;;;26.40;91.80;;;28.01;45.28;98237.69;5138313;28;20399;-57
2022/07/04 10:10:32;;;;;;;4.10;2.65;;;26.40;92.30;;;28.10;44.98;98235.00;5136053;28;20219;-62
2022/07/04 10:13:10;;;;;;;3.30;2.78;;;26.70;91.80;;;28.22;44.61;98234.91;5138323;28;20600;-59
2022/07/04 10:15:44;;;;;;;4.38;2.80;;;26.80;91.60;;;28.34;43.91;98223.41;5138852;28;20227;-61
2022/07/04 10:18:20;;;;;;;3.63;2.92;;;26.90;91.20;;;28.36;44.65;98226.03;5134371;28;20208;-58
2022/07/04 10:20:56;;;;;;;3.05;2.63;;;26.90;91.40;;;28.49;44.15;98225.06;5134740;28;20234;-58
2022/07/04 10:23:31;;;;;;;2.70;2.50;;;27.10;90.70;;;28.42;43.11;98231.28;5137940;28;20226;-59
2022/07/04 10:26:07;;;;;;;2.65;2.45;;;27.10;90.40;;;28.47;43.30;98232.09;5133230;28;20204;-58
2022/07/04 10:28:42;;;;;;;3.10;2.70;;;27.20;90.00;;;28.53;42.23;98234.69;5139679;28;20678;-62
2022/07/04 10:31:25;;;;;;;3.13;2.20;;;27.30;88.60;;;28.65;41.31;98237.22;5137550;28;20223;-58
2022/07/04 10:34:00;;;;;;;2.63;2.42;;;27.50;86.70;;;28.71;39.72;98237.16;5139755;28;20203;-58
2022/07/04 10:36:35;;;;;;;3.00;2.40;;;27.50;83.30;;;28.75;39.45;98236.22;5137142;28;20246;-58
2022/07/04 10:39:08;;;;;;;2.60;2.20;;;27.40;84.20;;;28.83;37.69;98235.28;5138528;28;20251;-59
2022/07/04 10:41:59;;;;;;;2.10;2.00;;;27.60;80.10;;;29.07;38.97;98228.91;5140457;28;20231;-61
2022/07/04 10:44:37;;;;;;;2.83;2.05;;;27.80;83.00;;;29.15;37.25;98230.56;5136031;28;20290;-59
2022/07/04 10:47:24;;;;;;;3.15;2.30;;;27.90;80.00;;;29.05;38.41;98223.69;5140302;28;20204;-60
2022/07/04 10:50:01;;;;;;;2.65;2.15;;;27.80;82.10;;;28.88;39.47;98220.34;5136404;28;20226;-58
2022/07/04 10:52:34;;;;;;;2.72;2.20;;;27.70;83.40;;;28.51;40.24;98212.78;5135020;28;20576;-59
2022/07/04 10:55:14;;;;;;;2.35;2.15;;;27.30;84.40;;;28.22;40.75;98213.88;5136669;28;20572;-59
2022/07/04 10:57:49;;;;;;;2.70;2.38;;;27.00;84.10;;;28.07;39.47;98208.72;5137411;28;20246;-57
2022/07/04 11:00:22;;;;;;;3.50;2.35;;;26.90;82.90;;;27.85;41.81;98208.00;5139439;28;20290;-63
2022/07/04 11:03:17;;;;;;;3.42;2.50;;;26.70;85.10;;;27.78;42.40;98207.13;5135533;28;20249;-58
2022/07/04 11:05:52;;;;;;;3.38;2.30;;;26.60;86.80;;;27.85;41.90;98201.00;5137087;28;20640;-59
2022/07/04 11:08:25;;;;;;;3.58;2.45;;;26.80;85.30;;;27.79;43.16;98208.91;5129794;28;20254;-62